Terminal Aerodrome Forecast
Issued by NWS Anchorage, AK

Home | Current Version | Previous Version | Text Only | Print | Product List | Glossary On
Versions: 1 2 3 4 5 6 7 8 9 10 11 12 13 14 15 16 17 18 19 20 21 22 23 24 25 26 27 28 29 30 31 32 33 34 35 36 37 38
000
FTAK31 PANC 271803 AAA
TAFANC
TAF AMD
PANC 271803Z 2718/2824 17011KT P6SM VCSH SCT040 OVC060
      TEMPO 2718/2720 BKN040
     FM272200 17012G18KT P6SM VCSH SCT040 OVC070
     FM280800 17005KT P6SM VCSH SCT030 OVC050
     FM281800 32006KT P6SM SCT050 BKN080=

USA.gov is the U.S. government's official web portal to all federal, state and local government web resources and services.